Time;durP1;ratioP1;P1;durP2;ratioP2;P2;SDS_P1;SDS_P2;PMS_P1;PMS_P2;Temp;Humidity;BMP_temperature;BMP_pressure;BME280_temperature;BME280_humidity;BME280_pressure;Samples;Min_cycle;Max_cycle;Signal;HPM_P1;HPM_P2
2023/09/16 00:08:42;;;;;;;16.83;14.48;;;;;;;12.21;100.00;101426.25;5642110;22;20059;-80
2023/09/16 00:11:10;;;;;;;;;;;;;;;12.24;100.00;101418.28;4978242;22;20484;-79
2023/09/16 00:14:08;;;;;;;16.95;15.02;;;;;;;12.24;100.00;101415.72;4933632;29;19923;-81
2023/09/16 00:16:33;;;;;;;17.73;15.85;;;;;;;12.28;100.00;101422.34;4951231;29;20035;-80
2023/09/16 00:21:24;;;;;;;17.42;15.73;;;;;;;12.25;100.00;101427.72;5476687;22;20059;-81
2023/09/16 00:23:50;;;;;;;16.83;15.02;;;;;;;12.24;100.00;101428.66;4990124;28;20027;-81
2023/09/16 00:26:15;;;;;;;17.55;15.40;;;;;;;12.25;100.00;101426.91;4990219;28;20022;-81
2023/09/16 00:28:41;;;;;;;17.02;15.32;;;;;;;12.20;100.00;101419.41;4990091;28;20035;-82
2023/09/16 00:31:07;;;;;;;18.30;15.20;;;;;;;12.14;100.00;101412.00;4989965;28;20355;-83
2023/09/16 00:33:33;;;;;;;19.17;16.00;;;;;;;12.18;100.00;101425.59;4991294;28;20066;-83
2023/09/16 00:38:47;;;;;;;17.13;15.30;;;;;;;11.20;100.00;101260.63;4972316;28;20055;-80
2023/09/16 00:41:59;;;;;;;18.40;16.50;;;;;;;12.22;100.00;101432.28;4973739;28;20030;-81
2023/09/16 00:44:24;;;;;;;18.98;16.95;;;;;;;11.81;100.00;101370.03;4974104;28;20039;-80
2023/09/16 00:47:11;;;;;;;17.75;15.95;;;;;;;12.17;100.00;101417.00;4967246;28;20062;-80
2023/09/16 00:49:46;;;;;;;18.77;16.02;;;;;;;11.77;100.00;101356.41;4973960;28;20093;-82
2023/09/16 00:52:24;;;;;;;18.05;16.25;;;;;;;12.16;100.00;101427.44;4973292;28;20379;-80
2023/09/16 00:54:52;;;;;;;18.42;16.15;;;;;;;11.89;100.00;101389.34;4973391;28;20038;-78
2023/09/16 00:57:17;;;;;;;19.35;16.65;;;;;;;12.03;100.00;101409.25;4955698;28;20039;-80
2023/09/16 00:59:44;;;;;;;18.17;16.30;;;;;;;12.05;100.00;101422.91;4973564;28;20034;-78
2023/09/16 01:02:09;;;;;;;16.95;15.30;;;;;;;12.05;100.00;101420.31;4973119;28;20492;-79
2023/09/16 01:04:38;;;;;;;18.13;16.17;;;;;;;11.80;100.00;101373.53;4973199;28;20027;-81
2023/09/16 01:07:03;;;;;;;18.48;16.45;;;;;;;11.97;100.00;101394.06;4973089;28;20022;-80
2023/09/16 01:09:29;;;;;;;19.40;16.90;;;;;;;12.02;100.00;101411.00;4973477;28;20479;-79
2023/09/16 01:11:54;;;;;;;18.02;16.13;;;;;;;11.97;100.00;101396.66;4973217;28;20096;-81
2023/09/16 01:14:23;;;;;;;17.58;15.43;;;;;;;11.88;100.00;101392.00;4973903;28;20050;-79
2023/09/16 01:17:05;;;;;;;17.17;15.20;;;;;;;11.72;100.00;101373.97;4956580;28;20027;-81
2023/09/16 01:19:44;;;;;;;17.67;15.55;;;;;;;11.85;100.00;101405.97;4973133;28;20388;-80
2023/09/16 01:22:10;;;;;;;18.17;16.25;;;;;;;11.83;100.00;101396.66;4973052;28;20391;-80
2023/09/16 01:24:36;;;;;;;18.25;16.45;;;;;;;11.82;100.00;101400.16;4975197;28;20476;-82
2023/09/16 01:27:02;;;;;;;21.10;17.48;;;;;;;11.75;100.00;101378.94;4978765;28;20027;-80
2023/09/16 01:29:28;;;;;;;22.30;16.60;;;;;;;11.57;100.00;101360.16;4978228;28;20036;-81
2023/09/16 01:31:55;;;;;;;18.42;16.52;;;;;;;11.53;100.00;101358.69;4957953;28;20034;-80
2023/09/16 01:34:31;;;;;;;19.95;17.73;;;;;;;11.76;100.00;101396.13;4973942;28;20042;-83
2023/09/16 01:36:58;;;;;;;20.17;17.60;;;;;;;11.64;100.00;101386.50;5224419;22;20133;-83
2023/09/16 01:39:25;;;;;;;19.45;17.42;;;;;;;11.52;100.00;101366.53;4973557;28;20567;-81
2023/09/16 01:41:52;;;;;;;19.67;17.52;;;;;;;11.50;100.00;101371.78;4973415;28;20117;-81
2023/09/16 01:44:17;;;;;;;18.08;16.17;;;;;;;11.60;100.00;101391.03;4972177;28;20029;-81
2023/09/16 01:46:43;;;;;;;19.08;16.83;;;;;;;11.39;100.00;101363.81;4973135;28;20471;-79
2023/09/16 01:49:08;;;;;;;18.15;16.15;;;;;;;11.34;100.00;101355.50;5080593;22;20101;-80
2023/09/16 01:51:33;;;;;;;18.60;16.55;;;;;;;11.58;100.00;101402.38;5072567;22;20475;-82
2023/09/16 02:00:00;;;;;;;21.42;17.45;;;;;;;11.57;100.00;101391.19;4895133;28;20040;-82
2023/09/16 02:02:31;;;;;;;21.95;17.98;;;;;;;11.53;100.00;101389.72;4894842;28;20123;-82
2023/09/16 02:06:04;;;;;;;18.83;16.70;;;;;;;11.51;100.00;101389.00;4894819;29;20037;-79
2023/09/16 02:08:42;;;;;;;18.73;16.77;;;;;;;10.65;100.00;101258.66;4838804;29;20074;-81
2023/09/16 02:11:07;;;;;;;17.95;15.85;;;;;;;11.22;100.00;101354.47;4838680;29;20046;-80
2023/09/16 02:13:35;;;;;;;19.02;16.70;;;;;;;11.38;100.00;101391.44;4823824;29;20193;-80
2023/09/16 02:16:00;;;;;;;21.23;18.13;;;;;;;11.39;100.00;101387.09;4838515;29;20488;-80
2023/09/16 02:18:26;;;;;;;19.00;17.10;;;;;;;11.36;100.00;101389.84;4838432;29;20045;-80
2023/09/16 02:20:51;;;;;;;19.13;17.13;;;;;;;11.12;100.00;101354.16;4838347;29;20419;-80
2023/09/16 02:23:16;;;;;;;18.48;16.58;;;;;;;11.30;100.00;101388.44;4838212;29;20042;-83
2023/09/16 02:25:42;;;;;;;19.20;17.30;;;;;;;11.23;100.00;101373.38;4838390;29;20046;-81
2023/09/16 02:28:07;;;;;;;18.58;16.67;;;;;;;11.32;100.00;101383.22;4838362;29;20583;-83
2023/09/16 02:30:32;;;;;;;18.42;16.52;;;;;;;11.29;100.00;101385.94;4838302;29;20065;-83
2023/09/16 02:32:58;;;;;;;19.20;16.95;;;;;;;11.23;100.00;101389.72;4824461;29;20396;-82
2023/09/16 02:35:23;;;;;;;18.77;16.88;;;;;;;11.22;100.00;101388.06;4845751;29;20125;-82
2023/09/16 02:37:49;;;;;;;18.50;16.50;;;;;;;11.06;100.00;101369.16;4893323;29;20032;-80
2023/09/16 02:40:14;;;;;;;19.17;17.15;;;;;;;11.15;100.00;101377.22;4893811;29;20032;-83
2023/09/16 02:42:40;;;;;;;20.02;17.95;;;;;;;10.93;100.00;101347.53;4878151;29;20483;-83
2023/09/16 02:45:05;;;;;;;19.25;17.23;;;;;;;11.12;100.00;101380.00;4936159;28;20118;-83
2023/09/16 02:47:32;;;;;;;19.40;17.40;;;;;;;10.97;100.00;101355.00;5271637;22;20047;-83
2023/09/16 02:49:57;;;;;;;19.38;17.02;;;;;;;10.85;100.00;101337.59;4954593;28;20031;-83
2023/09/16 02:52:23;;;;;;;19.30;17.35;;;;;;;11.11;100.00;101380.91;4954603;28;20464;-82
2023/09/16 02:54:48;;;;;;;19.77;17.75;;;;;;;10.93;100.00;101347.53;4972185;28;20025;-83
2023/09/16 02:57:13;;;;;;;19.88;17.75;;;;;;;11.07;100.00;101370.81;4971706;28;20106;-82
2023/09/16 02:59:39;;;;;;;20.60;18.42;;;;;;;11.04;100.00;101369.25;4971978;28;20442;-83
2023/09/16 03:02:04;;;;;;;19.73;17.70;;;;;;;10.77;100.00;101324.28;4953891;28;20049;-82
2023/09/16 03:04:29;;;;;;;20.25;18.15;;;;;;;10.79;100.00;101330.19;4972082;28;20054;-82
2023/09/16 03:06:55;;;;;;;21.00;18.75;;;;;;;11.06;100.00;101375.16;4971945;28;20026;-83
2023/09/16 03:09:23;;;;;;;19.60;17.60;;;;;;;11.05;100.00;101373.50;4971677;28;20105;-82
2023/09/16 03:11:48;;;;;;;19.52;17.40;;;;;;;11.06;100.00;101371.75;4971291;28;20472;-83
2023/09/16 03:14:16;;;;;;;21.20;18.10;;;;;;;11.05;100.00;101367.50;4971775;28;20058;-82
2023/09/16 03:16:42;;;;;;;20.58;18.48;;;;;;;11.07;100.00;101368.25;4954291;28;20043;-83
2023/09/16 03:19:08;;;;;;;22.30;18.65;;;;;;;11.06;100.00;101372.56;4971823;28;20034;-81
2023/09/16 03:21:33;;;;;;;21.50;19.40;;;;;;;10.72;100.00;101314.22;4953768;28;20557;-83
2023/09/16 03:24:08;;;;;;;23.10;20.48;;;;;;;10.86;100.00;101331.53;4954512;28;20042;-82
2023/09/16 03:29:15;;;;;;;22.40;19.85;;;;;;;9.99;100.00;101189.16;5252628;22;20062;-83
2023/09/16 03:32:28;;;;;;;24.02;20.88;;;;;;;11.08;100.00;101362.16;4932931;28;20039;-82
2023/09/16 03:35:16;;;;;;;23.27;20.83;;;;;;;11.07;100.00;101357.91;4931739;28;20050;-83
2023/09/16 03:42:47;;;;;;;23.30;20.85;;;;;;;11.03;100.00;101353.84;4969407;28;20051;-81
2023/09/16 03:45:15;;;;;;;22.38;19.98;;;;;;;10.95;100.00;101338.75;4971458;28;20085;-82
2023/09/16 03:47:40;;;;;;;22.48;20.17;;;;;;;10.85;100.00;101325.53;4971348;28;20054;-83
2023/09/16 03:50:06;;;;;;;23.17;20.15;;;;;;;10.79;100.00;101317.28;4970907;28;20066;-81
2023/09/16 03:52:31;;;;;;;24.23;21.42;;;;;;;11.00;100.00;101335.91;4970873;28;20046;-82
2023/09/16 03:54:57;;;;;;;22.27;19.75;;;;;;;11.06;100.00;101346.72;4953657;28;20061;-81
2023/09/16 03:57:22;;;;;;;22.98;20.63;;;;;;;11.05;100.00;101339.91;4971227;28;20031;-81
2023/09/16 03:59:48;;;;;;;23.27;20.77;;;;;;;11.06;100.00;101344.16;4971039;28;20037;-81
2023/09/16 04:02:13;;;;;;;23.23;20.48;;;;;;;11.06;100.00;101345.91;4971169;28;20031;-81
2023/09/16 04:04:39;;;;;;;23.95;21.38;;;;;;;10.88;100.00;101316.75;4971070;28;20042;-81
2023/09/16 04:12:15;;;;;;;22.23;19.88;;;;;;;11.06;100.00;101345.91;5019589;22;20054;-82
2023/09/16 04:14:45;;;;;;;23.55;21.13;;;;;;;11.07;100.00;101347.56;4974207;28;20023;-81
2023/09/16 04:17:12;;;;;;;22.63;20.33;;;;;;;11.06;100.00;101345.91;4973965;28;20023;-81
2023/09/16 04:19:37;;;;;;;23.98;20.70;;;;;;;10.81;100.00;101312.84;4957621;28;20392;-82
2023/09/16 04:22:03;;;;;;;23.48;20.88;;;;;;;11.02;100.00;101355.59;4974273;28;20102;-82
2023/09/16 04:24:28;;;;;;;24.48;21.65;;;;;;;10.90;100.00;101331.25;4973894;28;20027;-82
2023/09/16 04:26:54;;;;;;;24.23;21.63;;;;;;;11.01;100.00;101350.47;4974337;28;20110;-82
2023/09/16 04:39:40;;;;;;;22.67;20.27;;;;;;;10.89;100.00;101331.34;5275676;22;20404;-81
2023/09/16 04:42:05;;;;;;;25.42;21.35;;;;;;;10.87;100.00;101333.19;4973704;28;20034;-82
2023/09/16 04:44:38;;;;;;;21.77;19.55;;;;;;;10.93;100.00;101338.00;4973843;28;20064;-81
2023/09/16 04:47:07;;;;;;;26.75;21.92;;;;;;;10.76;100.00;101314.88;4973586;28;20023;-81
2023/09/16 04:49:34;;;;;;;24.05;21.38;;;;;;;10.89;100.00;101339.09;4973707;28;20437;-81
2023/09/16 04:51:59;;;;;;;23.45;20.95;;;;;;;10.89;100.00;101342.50;4973375;28;20472;-81
2023/09/16 04:54:25;;;;;;;21.42;19.23;;;;;;;10.76;100.00;101326.03;4973642;28;20038;-81
2023/09/16 04:56:55;;;;;;;23.25;20.80;;;;;;;10.74;100.00;101321.88;4973680;28;20023;-81
2023/09/16 04:59:20;;;;;;;23.77;20.67;;;;;;;10.86;100.00;101345.28;4973555;28;20034;-81
2023/09/16 05:01:47;;;;;;;23.20;20.23;;;;;;;10.87;100.00;101343.50;4973390;28;20067;-81
2023/09/16 05:04:13;;;;;;;23.20;20.58;;;;;;;10.87;100.00;101338.34;4973620;28;20055;-80
2023/09/16 05:06:40;;;;;;;22.40;20.17;;;;;;;10.82;100.00;101330.03;4973634;28;20081;-81
2023/09/16 05:09:06;;;;;;;26.67;23.15;;;;;;;10.88;100.00;101337.44;4973307;28;20475;-81
2023/09/16 05:11:49;;;;;;;24.63;22.08;;;;;;;10.88;100.00;101338.25;4980398;28;20072;-80
2023/09/16 05:24:53;;;;;;;24.75;21.23;;;;;;;9.86;100.00;101168.38;4956829;26;20050;-80
2023/09/16 05:35:51;;;;;;;23.75;21.27;;;;;;;11.05;100.00;101341.66;5094831;22;20058;-80
2023/09/16 05:38:16;;;;;;;23.05;20.55;;;;;;;10.87;100.00;101299.59;4992518;28;20445;-81
2023/09/16 05:40:42;;;;;;;24.30;21.67;;;;;;;11.16;100.00;101339.28;4975223;28;20034;-80
2023/09/16 05:43:07;;;;;;;25.13;22.25;;;;;;;11.20;100.00;101336.44;4992467;28;20030;-82
2023/09/16 05:45:32;;;;;;;25.20;21.65;;;;;;;11.28;100.00;101330.00;4992482;28;20049;-81
2023/09/16 05:48:02;;;;;;;24.55;21.88;;;;;;;11.09;100.00;101288.84;4992451;28;20031;-82
2023/09/16 05:50:27;;;;;;;24.92;22.30;;;;;;;11.40;100.00;101342.19;4992631;28;20037;-81
2023/09/16 05:52:53;;;;;;;23.92;21.42;;;;;;;11.47;100.00;101341.75;4992446;28;20117;-81
2023/09/16 05:57:53;;;;;;;23.42;20.92;;;;;;;11.60;100.00;101344.47;5706683;22;20054;-81
2023/09/16 06:00:18;;;;;;;23.55;21.10;;;;;;;11.61;100.00;101329.78;4972911;28;20035;-83
2023/09/16 06:40:53;;;;;;;20.13;15.38;;;;;;;18.98;94.00;101258.66;5969514;22;20033;-81
2023/09/16 06:55:35;;;;;;;11.02;8.93;;;;;;;22.46;76.82;101339.84;5121893;22;20055;-81
2023/09/16 06:58:04;;;;;;;18.27;14.35;;;;;;;22.68;71.84;101374.41;4972383;28;20480;-78
2023/09/16 07:00:30;;;;;;;12.75;9.75;;;;;;;22.68;73.08;101380.50;4972198;28;20031;-80
2023/09/16 07:02:57;;;;;;;15.93;14.18;;;;;;;21.83;74.10;101379.69;4972089;28;20050;-81
2023/09/16 07:05:22;;;;;;;15.35;11.70;;;;;;;21.19;79.38;101380.88;4971876;28;20023;-80
2023/09/16 07:07:47;;;;;;;17.70;14.38;;;;;;;20.58;81.80;101366.72;4953420;28;20538;-80
2023/09/16 07:10:13;;;;;;;15.27;12.75;;;;;;;20.18;85.36;101366.22;4971732;28;20023;-80
2023/09/16 07:12:38;;;;;;;14.40;11.45;;;;;;;19.76;87.25;101351.78;4971611;28;20029;-81
2023/09/16 07:18:14;;;;;;;17.30;13.50;;;;;;;19.29;90.90;101365.78;4963261;22;20144;-81
2023/09/16 07:20:48;;;;;;;14.77;12.68;;;;;;;18.61;91.02;101308.22;4933203;28;20035;-80
2023/09/16 07:29:50;;;;;;;17.10;14.02;;;;;;;18.55;96.36;101358.44;4933238;29;19921;-81
2023/09/16 07:32:29;;;;;;;18.95;14.52;;;;;;;18.13;95.34;101306.34;4933341;28;20118;-81
2023/09/16 07:42:32;;;;;;;15.60;13.32;;;;;;;18.51;96.55;101364.91;4932982;29;20170;-81
2023/09/16 07:48:26;;;;;;;15.60;13.13;;;;;;;17.80;96.03;101289.19;4971585;28;20043;-81
2023/09/16 07:54:13;;;;;;;15.55;13.85;;;;;;;17.71;96.38;101280.34;4972127;28;20101;-80
2023/09/16 07:57:14;;;;;;;15.85;12.55;;;;;;;17.33;97.25;101222.72;4955544;28;20428;-82
2023/09/16 08:02:52;;;;;;;15.73;14.02;;;;;;;17.23;98.32;101204.41;4990129;22;20055;-80
2023/09/16 08:05:57;;;;;;;11.23;9.57;;;;;;;18.30;98.24;101375.47;4971190;28;20368;-81
2023/09/16 08:08:32;;;;;;;15.48;13.68;;;;;;;17.77;97.47;101311.16;4970886;28;20031;-79
2023/09/16 08:11:20;;;;;;;16.08;13.88;;;;;;;18.18;98.46;101381.72;4970613;28;20035;-78
2023/09/16 08:31:51;;;;;;;19.38;15.90;;;;;;;17.68;97.70;101238.78;5413314;22;20051;-80
2023/09/16 08:58:15;;;;;;;16.20;12.60;;;;;;;19.09;97.56;101313.47;5107780;22;20051;-78
2023/09/16 09:00:53;;;;;;;17.30;14.60;;;;;;;18.76;95.72;101257.13;4974036;28;20030;-80
2023/09/16 09:03:49;;;;;;;17.42;15.52;;;;;;;18.97;94.06;101285.75;4973741;28;20035;-80
2023/09/16 09:06:21;;;;;;;14.80;11.70;;;;;;;19.48;94.63;101342.19;4973671;28;20484;-80
2023/09/16 09:08:54;;;;;;;11.82;10.55;;;;;;;19.03;93.30;101248.56;4973711;28;20042;-78
2023/09/16 09:12:01;;;;;;;15.32;13.55;;;;;;;20.00;92.53;101397.63;4973575;28;20027;-80
2023/09/16 09:17:46;;;;;;;15.10;13.20;;;;;;;20.07;91.38;101409.19;4945309;28;20053;-80
2023/09/16 09:20:36;;;;;;;14.80;10.32;;;;;;;20.15;92.41;101404.03;4973257;28;20030;-80
2023/09/16 09:26:14;;;;;;;16.95;14.07;;;;;;;19.89;90.32;101351.47;5103194;22;20054;-82
2023/09/16 09:29:26;;;;;;;13.45;11.50;;;;;;;20.24;90.93;101412.84;4992390;28;20022;-80
2023/09/16 09:34:32;;;;;;;16.02;13.40;;;;;;;20.19;89.05;101387.06;5512843;22;19928;-82
2023/09/16 09:36:58;;;;;;;14.98;12.82;;;;;;;20.40;89.69;101406.97;5039766;28;20043;-81
2023/09/16 09:39:23;;;;;;;13.25;10.15;;;;;;;20.39;89.24;101403.53;4973444;28;20068;-81
2023/09/16 09:41:51;;;;;;;13.98;10.07;;;;;;;20.36;89.85;101389.88;4952582;28;20074;-81
2023/09/16 09:44:16;;;;;;;16.33;12.77;;;;;;;20.52;88.02;101411.91;4954607;28;20053;-83
2023/09/16 09:59:50;;;;;;;15.07;9.98;;;;;;;20.61;86.59;101423.31;4972822;28;20050;-79
2023/09/16 10:05:49;;;;;;;15.25;11.05;;;;;;;20.19;87.54;101376.56;4972058;28;20058;-80
2023/09/16 10:25:33;;;;;;;16.40;14.15;;;;;;;20.87;87.65;101411.13;4949097;28;20036;-81
2023/09/16 10:34:32;;;;;;;14.68;9.75;;;;;;;20.55;86.02;101287.44;4893877;29;19958;-81
2023/09/16 10:37:22;;;;;;;14.52;10.93;;;;;;;21.48;84.93;101406.91;4893920;29;20036;-81
2023/09/16 10:40:45;;;;;;;12.93;8.98;;;;;;;21.52;82.32;101405.59;4894084;29;20033;-81
2023/09/16 10:43:41;;;;;;;13.35;10.15;;;;;;;21.54;81.54;101406.31;4861994;29;20048;-80
2023/09/16 10:50:13;;;;;;;11.75;9.32;;;;;;;21.02;81.11;101297.69;4894148;29;20120;-81
2023/09/16 11:06:50;;;;;;;12.15;9.95;;;;;;;21.58;78.40;101325.34;4927868;28;20055;-81
2023/09/16 11:10:19;;;;;;;14.98;10.38;;;;;;;22.00;80.68;101384.03;4915193;29;20044;-80
2023/09/16 11:17:05;;;;;;;11.07;9.85;;;;;;;22.17;80.26;101384.97;4859062;29;20052;-80
2023/09/16 11:23:02;;;;;;;;;;;;;;;22.20;80.87;101384.63;4859203;29;20041;-81
2023/09/16 11:25:43;;;;;;;12.38;10.88;;;;;;;21.96;79.70;101318.78;4858703;29;19927;-80
2023/09/16 11:41:28;;;;;;;13.32;10.68;;;;;;;21.67;78.00;101220.09;4825705;29;20055;-81
2023/09/16 11:43:53;;;;;;;13.18;10.85;;;;;;;22.35;78.93;101315.63;4822188;29;20033;-81
2023/09/16 11:53:26;;;;;;;13.05;10.98;;;;;;;22.71;76.60;101369.63;4876777;29;19923;-80
2023/09/16 11:56:14;;;;;;;13.43;11.48;;;;;;;22.75;77.06;101375.41;4876969;29;20091;-79
2023/09/16 12:02:09;;;;;;;14.93;12.32;;;;;;;22.53;74.38;101322.41;4901701;29;20067;-80
2023/09/16 12:04:53;;;;;;;16.65;11.00;;;;;;;22.87;76.38;101369.69;4894799;29;20494;-80
2023/09/16 12:07:56;;;;;;;15.43;12.25;;;;;;;22.93;75.63;101368.22;4897452;28;20040;-80
2023/09/16 12:10:33;;;;;;;13.43;10.50;;;;;;;22.95;76.59;101365.44;4914151;29;20055;-78
2023/09/16 12:13:43;;;;;;;12.80;11.45;;;;;;;22.53;76.89;101279.47;4913309;29;20028;-80
2023/09/16 12:23:06;;;;;;;16.98;11.55;;;;;;;23.23;75.40;101360.66;4984742;23;20500;-78
2023/09/16 12:29:28;;;;;;;15.02;10.93;;;;;;;23.14;75.18;101363.28;4971363;28;20054;-78
2023/09/16 12:35:29;;;;;;;15.27;10.60;;;;;;;22.39;76.49;101236.19;4973944;28;20046;-79
2023/09/16 12:38:24;;;;;;;14.43;12.55;;;;;;;22.25;75.48;101207.91;4973323;28;20369;-79
2023/09/16 12:41:12;;;;;;;13.70;12.20;;;;;;;23.22;74.68;101349.28;4994358;28;20038;-79
2023/09/16 12:44:02;;;;;;;14.27;11.90;;;;;;;23.37;76.16;101357.31;4994319;28;20053;-78
2023/09/16 12:46:59;;;;;;;13.70;11.20;;;;;;;23.50;75.63;101349.75;4994157;28;20535;-80
2023/09/16 12:49:50;;;;;;;12.35;10.73;;;;;;;22.63;74.50;101197.72;4994378;28;20500;-79
2023/09/16 12:52:18;;;;;;;;;;;;;;;23.62;75.17;101355.50;4994442;28;20140;-78
2023/09/16 12:54:56;;;;;;;15.25;11.32;;;;;;;23.03;72.99;101252.16;4994312;28;19914;-78
2023/09/16 13:00:53;;;;;;;;;;;;;;;23.71;74.82;101334.22;4975425;28;20049;-80
2023/09/16 13:03:22;;;;;;;13.30;11.20;;;;;;;23.36;73.82;101287.16;4974764;28;19914;-78
2023/09/16 13:06:18;;;;;;;14.32;11.43;;;;;;;23.70;73.17;101332.56;4974610;28;20106;-78
2023/09/16 13:08:47;;;;;;;16.33;12.40;;;;;;;23.51;72.43;101297.84;4974692;28;20045;-77
2023/09/16 13:11:26;;;;;;;13.48;11.80;;;;;;;23.22;72.30;101243.88;4974338;28;20043;-76
2023/09/16 13:14:11;;;;;;;14.68;11.45;;;;;;;23.72;73.94;101306.84;4974373;28;20118;-75
2023/09/16 13:17:07;;;;;;;14.18;12.40;;;;;;;23.12;71.70;101195.84;4972443;28;20130;-77
2023/09/16 13:19:39;;;;;;;14.05;11.38;;;;;;;23.91;73.17;101318.00;4983103;28;20407;-78
2023/09/16 13:22:33;;;;;;;12.95;9.73;;;;;;;24.04;74.25;101328.81;4952572;29;20083;-77
2023/09/16 13:25:28;;;;;;;12.77;10.93;;;;;;;23.49;73.67;101232.09;4953812;29;20431;-77
2023/09/16 13:28:23;;;;;;;11.25;9.68;;;;;;;24.27;73.01;101331.47;4953915;28;20035;-76
2023/09/16 13:31:03;;;;;;;12.90;10.00;;;;;;;23.47;70.67;101200.63;4954075;29;20061;-75
2023/09/16 13:34:21;;;;;;;11.18;9.80;;;;;;;24.29;69.51;101321.59;4954246;29;20039;-77
2023/09/16 13:36:46;;;;;;;11.60;9.77;;;;;;;24.36;70.19;101324.38;4953811;29;20123;-77
2023/09/16 13:39:22;;;;;;;15.20;11.15;;;;;;;23.56;68.83;101198.78;4953775;29;20516;-78
2023/09/16 13:41:59;;;;;;;15.10;10.93;;;;;;;23.57;69.78;101197.78;4953741;29;20027;-78
2023/09/16 13:44:27;;;;;;;10.50;9.18;;;;;;;24.37;73.18;101313.63;4953593;28;20023;-76
2023/09/16 13:46:53;;;;;;;11.60;9.95;;;;;;;23.50;70.96;101173.13;4954042;29;20495;-77
2023/09/16 13:49:32;;;;;;;14.52;11.63;;;;;;;24.21;70.63;101303.97;4953781;29;20055;-77
2023/09/16 13:52:06;;;;;;;13.40;9.75;;;;;;;23.83;72.32;101252.91;4953796;29;20031;-78
2023/09/16 13:54:48;;;;;;;12.10;10.15;;;;;;;23.88;72.54;101273.47;4985941;28;20538;-77
2023/09/16 13:57:19;;;;;;;13.02;10.27;;;;;;;23.15;72.44;101177.88;4891863;29;20097;-77
2023/09/16 13:59:44;;;;;;;13.65;11.27;;;;;;;23.95;71.84;101314.00;4953643;28;20106;-77
2023/09/16 14:02:25;;;;;;;13.82;10.65;;;;;;;23.14;73.26;101189.41;4953537;29;20107;-80
2023/09/16 14:05:35;;;;;;;13.77;10.30;;;;;;;23.91;71.17;101313.53;4953647;28;20027;-79
2023/09/16 14:08:11;;;;;;;12.25;9.82;;;;;;;23.22;71.92;101217.53;4937094;28;20036;-79
2023/09/16 14:10:41;;;;;;;13.77;10.38;;;;;;;23.87;72.74;101308.75;4953509;28;20481;-80
2023/09/16 14:13:16;;;;;;;16.52;10.18;;;;;;;23.30;74.39;101214.84;4958486;28;20032;-80
2023/09/16 14:16:32;;;;;;;;;;;;;;;;;;;;;
2023/09/16 14:21:32;;;;;;;11.65;9.95;;;;;;;23.62;73.96;101257.94;4982547;22;20063;-79
2023/09/16 14:24:17;;;;;;;12.55;9.27;;;;;;;23.17;74.73;101193.50;4972635;28;20027;-80
2023/09/16 14:30:01;;;;;;;11.00;9.10;;;;;;;23.57;73.01;101268.13;5000707;22;20124;-80
2023/09/16 14:33:41;;;;;;;;;;;;;;;;;;;;;
2023/09/16 14:37:16;;;;;;;12.32;9.85;;;;;;;23.84;74.91;101303.84;4971949;28;20042;-80
2023/09/16 14:39:51;;;;;;;12.27;10.13;;;;;;;23.15;76.65;101208.66;4875406;29;20104;-80
2023/09/16 14:42:17;;;;;;;13.20;9.40;;;;;;;23.72;75.30;101313.94;4875435;29;20380;-79
2023/09/16 14:45:00;;;;;;;13.15;9.45;;;;;;;23.13;76.41;101222.00;4875555;28;20044;-79
2023/09/16 14:50:31;;;;;;;12.52;10.05;;;;;;;22.81;78.03;101178.09;4874406;29;20033;-79
2023/09/16 14:52:57;;;;;;;12.38;9.50;;;;;;;22.88;77.22;101183.53;4874234;29;20040;-78
2023/09/16 14:55:35;;;;;;;11.27;8.93;;;;;;;23.76;79.05;101320.50;4875157;29;20049;-77
2023/09/16 14:58:09;;;;;;;15.98;10.05;;;;;;;22.98;78.47;101173.63;4874984;29;20029;-77
2023/09/16 15:01:03;;;;;;;11.38;8.85;;;;;;;23.15;78.12;101191.03;4874848;29;20052;-77
2023/09/16 15:03:31;;;;;;;10.82;9.30;;;;;;;23.13;76.88;101176.41;4874932;29;20033;-77
2023/09/16 15:06:33;;;;;;;11.82;9.23;;;;;;;23.84;77.49;101273.00;4875188;29;20035;-75
2023/09/16 15:09:07;;;;;;;11.15;9.63;;;;;;;24.12;78.51;101314.75;4896227;29;20045;-77
2023/09/16 15:11:39;;;;;;;11.18;8.80;;;;;;;23.87;79.05;101270.00;4880355;29;20431;-80
2023/09/16 15:14:28;;;;;;;12.65;9.55;;;;;;;24.26;77.39;101314.81;4895640;29;20079;-76
2023/09/16 15:17:09;;;;;;;9.90;8.05;;;;;;;23.47;76.98;101176.91;4909614;29;20044;-74
2023/09/16 15:19:34;;;;;;;14.75;9.35;;;;;;;23.54;74.42;101182.31;4914927;29;20036;-76
2023/09/16 15:22:21;;;;;;;12.98;9.63;;;;;;;24.40;74.90;101312.47;4914781;29;20044;-76
2023/09/16 15:25:30;;;;;;;11.45;9.68;;;;;;;24.40;74.96;101323.03;4952852;23;20353;-76
2023/09/16 15:28:21;;;;;;;14.35;9.82;;;;;;;24.37;74.10;101324.19;4989711;28;20041;-81
2023/09/16 15:30:46;;;;;;;14.77;10.68;;;;;;;24.30;73.72;101317.94;4990762;28;20427;-80
2023/09/16 15:33:45;;;;;;;11.55;10.00;;;;;;;23.52;74.69;101186.13;4991103;28;20027;-80
2023/09/16 15:36:28;;;;;;;14.50;10.57;;;;;;;23.64;75.36;101221.69;4895622;28;20414;-80
2023/09/16 15:38:59;;;;;;;14.02;10.27;;;;;;;24.22;75.08;101326.72;4911506;29;20034;-78
2023/09/16 15:41:40;;;;;;;;;;;;;;;24.27;76.33;101324.38;4912528;29;20055;-79
2023/09/16 15:44:08;;;;;;;12.07;10.13;;;;;;;23.61;75.65;101238.66;4898225;29;19938;-79
2023/09/16 15:46:49;;;;;;;12.27;9.63;;;;;;;23.25;76.96;101182.94;4911527;29;20135;-79
2023/09/16 15:49:14;;;;;;;15.18;10.00;;;;;;;23.39;78.62;101213.00;4911756;29;20024;-77
2023/09/16 15:51:40;;;;;;;13.13;9.55;;;;;;;23.26;77.94;101210.94;4912156;29;20067;-80
2023/09/16 15:57:30;;;;;;;11.68;9.77;;;;;;;23.84;77.85;101309.09;4912124;29;20580;-81
2023/09/16 16:00:08;;;;;;;11.18;9.10;;;;;;;22.94;79.83;101187.31;4911597;29;20548;-80
2023/09/16 16:02:36;;;;;;;10.88;9.77;;;;;;;22.96;79.00;101199.31;4911548;28;20063;-78
2023/09/16 16:05:22;;;;;;;9.88;8.20;;;;;;;23.56;80.86;101306.88;4913912;29;20036;-80
2023/09/16 16:08:05;;;;;;;12.13;9.48;;;;;;;22.70;81.43;101178.44;4899435;28;20130;-79
2023/09/16 16:10:31;;;;;;;12.23;9.57;;;;;;;23.09;82.11;101247.03;4914909;29;20036;-78
2023/09/16 16:12:56;;;;;;;12.82;9.55;;;;;;;23.29;82.06;101297.53;4968121;28;20052;-76
2023/09/16 16:15:21;;;;;;;13.65;9.55;;;;;;;23.35;82.88;101309.22;4975923;28;20038;-79
2023/09/16 16:17:47;;;;;;;12.35;10.60;;;;;;;23.30;82.44;101307.09;4993901;28;20066;-80
2023/09/16 16:22:57;;;;;;;12.50;9.90;;;;;;;22.31;83.09;101170.41;5084966;22;20047;-79
2023/09/16 16:25:55;;;;;;;12.25;9.57;;;;;;;23.15;83.38;101308.78;4954703;28;20054;-80
2023/09/16 16:31:46;;;;;;;11.60;9.80;;;;;;;22.37;84.05;101211.03;5248424;22;20416;-77
2023/09/16 16:34:11;;;;;;;11.43;9.20;;;;;;;22.70;85.39;101280.28;5039916;28;20606;-80
2023/09/16 16:36:37;;;;;;;11.52;8.77;;;;;;;21.99;84.66;101179.88;4974330;28;20060;-77
2023/09/16 16:39:14;;;;;;;14.25;10.57;;;;;;;21.95;85.51;101183.84;4974067;28;20027;-79
2023/09/16 16:48:11;;;;;;;;;;;;;;;22.65;86.33;101317.66;4974185;28;20049;-80
2023/09/16 16:57:53;;;;;;;;;;;;;;;;;;;;;
2023/09/16 17:00:31;;;;;;;10.68;8.27;;;;;;;21.54;91.36;101203.94;5414655;22;20364;-81
2023/09/16 17:06:59;;;;;;;12.07;10.63;;;;;;;21.36;91.94;101197.97;4952107;29;20110;-80
2023/09/16 17:09:33;;;;;;;12.52;10.65;;;;;;;21.85;92.70;101292.78;4936201;29;20408;-79
2023/09/16 17:11:58;;;;;;;12.52;9.38;;;;;;;21.28;95.63;101218.94;4952296;28;20051;-79
2023/09/16 17:14:24;;;;;;;10.70;9.60;;;;;;;21.85;96.91;101313.81;4944108;28;20082;-77
2023/09/16 17:17:08;;;;;;;12.30;9.40;;;;;;;21.56;96.07;101280.81;4932559;29;20127;-77
2023/09/16 17:20:17;;;;;;;12.55;10.15;;;;;;;21.79;97.14;101322.31;4932657;29;20031;-78
2023/09/16 17:22:49;;;;;;;9.23;8.30;;;;;;;20.97;99.94;101216.75;4958963;23;20047;-78